Time;durP1;ratioP1;P1;durP2;ratioP2;P2;SDS_P1;SDS_P2;PMS_P1;PMS_P2;Temp;Humidity;BMP_temperature;BMP_pressure;BME280_temperature;BME280_humidity;BME280_pressure;Samples;Min_cycle;Max_cycle;Signal;HPM_P1;HPM_P2
2023/06/30 00:01:27;;;;;;;6.07;4.70;;;;;;;21.23;74.17;97723.59;5091379;28;20242;-77
2023/06/30 00:03:54;;;;;;;6.03;4.53;;;;;;;21.24;74.15;97722.56;5091710;28;20210;-77
2023/06/30 00:06:20;;;;;;;5.00;4.60;;;;;;;21.27;73.82;97728.41;5091731;28;20235;-78
2023/06/30 00:08:49;;;;;;;5.07;4.57;;;;;;;21.31;73.29;97715.44;5091821;28;20832;-78
2023/06/30 00:11:16;;;;;;;4.83;4.43;;;;;;;21.32;72.83;97717.94;5091158;28;20234;-76
2023/06/30 00:13:43;;;;;;;5.20;4.57;;;;;;;21.32;72.47;97717.94;5091851;28;20303;-78
2023/06/30 00:16:10;;;;;;;5.07;4.53;;;;;;;21.37;72.11;97712.00;5091657;28;20203;-78
2023/06/30 00:18:36;;;;;;;5.03;4.53;;;;;;;21.38;71.96;97717.22;5092033;28;20207;-78
2023/06/30 00:21:03;;;;;;;5.00;4.33;;;;;;;21.37;72.17;97702.09;5091874;28;20253;-78
2023/06/30 00:23:30;;;;;;;5.87;4.23;;;;;;;21.35;72.75;97712.22;5092358;28;20658;-78
2023/06/30 00:25:57;;;;;;;4.77;4.37;;;;;;;21.35;72.68;97701.47;5091448;28;20237;-76
2023/06/30 00:28:24;;;;;;;4.90;4.40;;;;;;;21.32;72.77;97696.44;5091876;28;20213;-79
2023/06/30 00:30:50;;;;;;;4.20;3.90;;;;;;;21.31;72.33;97702.84;5091444;28;20223;-78
2023/06/30 00:33:17;;;;;;;4.87;4.37;;;;;;;21.31;72.47;97700.16;5091380;28;20210;-77
2023/06/30 00:35:43;;;;;;;4.83;4.40;;;;;;;21.31;72.12;97686.72;5091529;28;20218;-77
2023/06/30 00:38:10;;;;;;;4.87;4.37;;;;;;;21.28;71.39;97679.00;5091464;28;20206;-77
2023/06/30 00:40:36;;;;;;;4.93;4.43;;;;;;;21.22;71.80;97674.34;5091092;28;20226;-77
2023/06/30 00:43:04;;;;;;;4.87;4.43;;;;;;;21.12;73.11;97668.41;5091561;28;20237;-77
2023/06/30 00:45:31;;;;;;;4.57;4.17;;;;;;;21.02;74.20;97667.84;5091440;28;20240;-77
2023/06/30 00:47:57;;;;;;;5.37;4.87;;;;;;;20.90;75.15;97666.59;5091301;28;20211;-77
2023/06/30 00:50:24;;;;;;;6.20;4.60;;;;;;;20.79;75.48;97667.00;5095255;28;20226;-76
2023/06/30 00:52:50;;;;;;;5.67;4.63;;;;;;;20.70;75.90;97668.09;5095439;28;20203;-78
2023/06/30 00:55:18;;;;;;;5.53;4.47;;;;;;;20.63;76.43;97660.91;5095817;28;20206;-76
2023/06/30 00:57:44;;;;;;;4.90;4.50;;;;;;;20.55;76.97;97659.13;5099256;28;20217;-77
2023/06/30 01:00:13;;;;;;;6.07;4.50;;;;;;;20.48;77.56;97649.31;5097898;28;20237;-77
2023/06/30 01:02:48;;;;;;;5.10;4.30;;;;;;;20.42;78.26;97647.34;5098463;28;20297;-77
2023/06/30 01:05:20;;;;;;;4.80;4.40;;;;;;;20.37;78.42;97650.53;5097389;28;20203;-77
2023/06/30 01:07:54;;;;;;;4.90;4.50;;;;;;;20.34;78.46;97658.94;5095172;28;20253;-77
2023/06/30 01:10:24;;;;;;;4.90;4.40;;;;;;;20.33;78.86;97656.44;5094757;28;20234;-77
2023/06/30 01:12:51;;;;;;;5.10;4.60;;;;;;;20.31;78.67;97645.88;5095015;28;20207;-77
2023/06/30 01:15:20;;;;;;;5.70;5.00;;;;;;;20.25;78.96;97651.94;5094889;28;20217;-77
2023/06/30 01:17:51;;;;;;;5.30;4.87;;;;;;;20.22;79.19;97655.00;5094751;28;20209;-77
2023/06/30 01:20:19;;;;;;;5.10;4.70;;;;;;;20.18;79.24;97639.44;5094715;28;20230;-76
2023/06/30 01:22:53;;;;;;;5.30;4.80;;;;;;;20.12;79.58;97640.97;5094808;28;20210;-77
2023/06/30 01:25:21;;;;;;;5.40;5.00;;;;;;;20.12;79.38;97645.50;5094748;28;20206;-76
2023/06/30 01:27:49;;;;;;;6.00;5.40;;;;;;;20.15;79.49;97656.72;5094556;28;20237;-77
2023/06/30 01:30:16;;;;;;;6.40;5.80;;;;;;;20.23;78.70;97648.63;5094199;28;20717;-77
2023/06/30 01:32:45;;;;;;;5.73;5.23;;;;;;;20.23;78.31;97648.63;5094552;28;20202;-79
2023/06/30 01:35:12;;;;;;;6.27;5.67;;;;;;;20.10;80.01;97648.38;5094647;28;20301;-79
2023/06/30 01:37:38;;;;;;;6.43;5.17;;;;;;;20.01;81.12;97660.13;5094641;28;20199;-79
2023/06/30 01:40:06;;;;;;;5.77;5.23;;;;;;;19.99;81.49;97646.03;5094201;28;20229;-78
2023/06/30 01:42:34;;;;;;;5.27;4.80;;;;;;;19.96;82.36;97651.78;5094459;28;20253;-79
2023/06/30 01:45:02;;;;;;;5.87;5.37;;;;;;;19.98;83.10;97649.75;5094257;28;20229;-78
2023/06/30 01:47:29;;;;;;;6.43;5.60;;;;;;;19.99;83.47;97651.41;5094475;28;20222;-80
2023/06/30 01:49:57;;;;;;;6.27;5.67;;;;;;;20.00;83.88;97641.53;5094016;28;20231;-78
2023/06/30 01:52:24;;;;;;;6.23;5.63;;;;;;;20.02;83.58;97629.63;5094154;28;20696;-78
2023/06/30 01:54:51;;;;;;;5.60;5.03;;;;;;;19.98;83.80;97632.81;5094284;28;20202;-79
2023/06/30 01:57:17;;;;;;;6.23;5.60;;;;;;;19.94;84.24;97635.00;5094361;28;20202;-80
2023/06/30 01:59:44;;;;;;;5.87;5.37;;;;;;;19.89;84.45;97629.34;5093093;28;20235;-78
2023/06/30 02:02:10;;;;;;;5.67;5.17;;;;;;;19.86;83.90;97624.31;5094157;28;20211;-80
2023/06/30 02:04:37;;;;;;;5.47;5.00;;;;;;;19.88;83.02;97630.34;5094212;28;20207;-81
2023/06/30 02:07:05;;;;;;;6.13;5.40;;;;;;;19.91;81.94;97626.47;5094046;28;20231;-80
2023/06/30 02:09:32;;;;;;;6.90;5.30;;;;;;;19.93;81.21;97625.28;5093582;28;20206;-79
2023/06/30 02:11:59;;;;;;;5.63;5.13;;;;;;;19.90;81.47;97625.66;5093775;28;20218;-79
2023/06/30 02:14:25;;;;;;;6.60;5.67;;;;;;;19.97;81.16;97623.94;5093826;28;20233;-78
2023/06/30 02:16:51;;;;;;;5.57;5.17;;;;;;;20.02;81.08;97623.41;5093963;28;20214;-79
2023/06/30 02:19:18;;;;;;;5.80;5.30;;;;;;;19.97;81.24;97621.25;5093264;28;20214;-79
2023/06/30 02:21:44;;;;;;;7.10;5.23;;;;;;;19.92;82.01;97623.63;5093509;28;20230;-79
2023/06/30 02:24:12;;;;;;;6.83;5.50;;;;;;;19.84;83.30;97628.19;5093515;28;20589;-79
2023/06/30 02:26:39;;;;;;;6.03;5.43;;;;;;;19.75;83.94;97638.13;5093554;28;20594;-79
2023/06/30 02:29:05;;;;;;;7.33;5.50;;;;;;;19.66;84.74;97633.81;5093674;28;20226;-80
2023/06/30 02:31:32;;;;;;;5.70;5.20;;;;;;;19.60;85.18;97631.84;5093384;28;20227;-78
2023/06/30 02:33:58;;;;;;;6.27;5.77;;;;;;;19.54;85.57;97635.22;5093367;28;20211;-80
2023/06/30 02:36:25;;;;;;;6.10;5.60;;;;;;;19.49;86.26;97632.22;5093627;28;20207;-79
2023/06/30 02:38:51;;;;;;;5.80;5.30;;;;;;;19.53;86.04;97630.00;5093238;28;20206;-79
2023/06/30 02:41:19;;;;;;;5.83;5.33;;;;;;;19.56;85.69;97627.00;5092862;28;20238;-79
2023/06/30 02:43:46;;;;;;;6.00;5.50;;;;;;;19.61;84.89;97627.28;5093076;28;20213;-79
2023/06/30 02:46:12;;;;;;;5.80;5.20;;;;;;;19.69;84.10;97638.81;5093267;28;20218;-79
2023/06/30 02:48:39;;;;;;;5.87;5.30;;;;;;;19.71;84.26;97636.81;5093235;28;20215;-79
2023/06/30 02:51:05;;;;;;;6.00;5.50;;;;;;;19.73;84.73;97640.16;5092815;28;20233;-79
2023/06/30 02:53:32;;;;;;;6.17;5.50;;;;;;;19.75;84.64;97638.13;5093138;28;20218;-79
2023/06/30 02:55:58;;;;;;;6.13;5.53;;;;;;;19.74;85.34;97633.78;5092834;28;20234;-79
2023/06/30 02:58:26;;;;;;;6.63;5.50;;;;;;;19.74;85.73;97636.44;5093082;28;20199;-79
2023/06/30 03:00:55;;;;;;;5.80;5.30;;;;;;;19.74;85.63;97631.09;5099909;22;20231;-78
2023/06/30 03:03:21;;;;;;;5.73;5.23;;;;;;;19.72;85.35;97627.75;5072749;28;20203;-78
2023/06/30 03:05:48;;;;;;;6.20;5.30;;;;;;;19.66;85.54;97631.13;5072598;28;20226;-78
2023/06/30 03:08:14;;;;;;;6.17;5.57;;;;;;;19.61;85.97;97636.19;5072209;28;20227;-78
2023/06/30 03:10:41;;;;;;;5.90;5.40;;;;;;;19.60;86.37;97623.78;5071639;28;20229;-78
2023/06/30 03:13:07;;;;;;;6.17;5.57;;;;;;;19.56;86.38;97625.13;5072319;28;20561;-78
2023/06/30 03:15:35;;;;;;;7.20;6.23;;;;;;;19.52;86.96;97623.81;5072859;28;20208;-78
2023/06/30 03:18:01;;;;;;;6.53;5.93;;;;;;;19.48;87.54;97617.13;5072377;28;20223;-78
2023/06/30 03:20:28;;;;;;;6.33;5.73;;;;;;;19.43;87.74;97615.97;5072254;28;20261;-78
2023/06/30 03:22:54;;;;;;;6.10;5.60;;;;;;;19.38;87.99;97600.41;5072123;28;20203;-78
2023/06/30 03:25:22;;;;;;;6.20;5.60;;;;;;;19.32;88.59;97601.09;5072227;28;20214;-78
2023/06/30 03:27:48;;;;;;;6.40;5.80;;;;;;;19.24;88.86;97595.78;5072460;28;20231;-78
2023/06/30 03:30:16;;;;;;;7.93;5.80;;;;;;;19.22;89.20;97594.28;5072426;28;20231;-78
2023/06/30 03:32:43;;;;;;;6.17;5.60;;;;;;;19.16;89.54;97595.78;5072243;28;20207;-78
2023/06/30 03:35:10;;;;;;;7.03;6.33;;;;;;;19.12;89.97;97594.44;5072321;28;20215;-78
2023/06/30 03:37:36;;;;;;;7.23;6.30;;;;;;;19.06;91.05;97596.97;5071882;28;20215;-78
2023/06/30 03:40:05;;;;;;;6.40;5.90;;;;;;;19.00;91.51;97593.13;5071925;28;20594;-78
2023/06/30 03:42:31;;;;;;;7.40;6.70;;;;;;;18.98;91.96;97597.84;5072251;28;20658;-78
2023/06/30 03:44:58;;;;;;;6.03;5.57;;;;;;;18.99;92.02;97590.63;5072308;28;20226;-78
2023/06/30 03:47:25;;;;;;;6.53;5.93;;;;;;;18.97;92.07;97604.19;5072304;28;20260;-78
2023/06/30 03:49:53;;;;;;;6.87;6.23;;;;;;;18.96;92.23;97594.47;5071836;28;20577;-78
2023/06/30 03:52:20;;;;;;;7.00;6.30;;;;;;;18.96;92.13;97591.81;5071625;28;20214;-78
2023/06/30 03:54:46;;;;;;;6.50;5.87;;;;;;;18.98;92.22;97594.31;5071628;28;20203;-78
2023/06/30 03:57:13;;;;;;;7.30;6.53;;;;;;;18.99;92.22;97588.78;5071567;28;20591;-78
2023/06/30 03:59:39;;;;;;;6.43;5.77;;;;;;;18.99;91.75;97591.47;5071185;28;20213;-78
2023/06/30 04:02:06;;;;;;;6.77;6.17;;;;;;;19.01;91.17;97600.16;5071288;28;20735;-78
2023/06/30 04:04:32;;;;;;;7.13;6.50;;;;;;;19.00;91.63;97603.84;5071314;28;20333;-78
2023/06/30 04:07:00;;;;;;;6.87;6.17;;;;;;;19.01;92.57;97610.88;5071172;28;20697;-78
2023/06/30 04:09:27;;;;;;;7.70;6.90;;;;;;;19.01;92.80;97610.88;5071015;28;20297;-78
2023/06/30 04:11:53;;;;;;;7.53;6.83;;;;;;;19.01;93.63;97610.88;5071525;28;20227;-78
2023/06/30 04:14:20;;;;;;;6.77;6.17;;;;;;;19.03;93.88;97613.38;5071687;28;20207;-78
2023/06/30 04:16:47;;;;;;;7.07;6.43;;;;;;;19.06;93.56;97605.00;5071683;28;20212;-78
2023/06/30 04:19:13;;;;;;;7.40;6.70;;;;;;;19.08;93.33;97614.53;5070968;28;20254;-78
2023/06/30 04:21:40;;;;;;;6.60;6.10;;;;;;;19.16;92.76;97600.28;5071423;28;20228;-78
2023/06/30 04:24:08;;;;;;;7.10;6.50;;;;;;;19.25;92.01;97597.44;5071277;28;20324;-78
2023/06/30 04:26:35;;;;;;;8.23;6.53;;;;;;;19.34;91.03;97601.78;5071904;28;20203;-78
2023/06/30 04:29:02;;;;;;;7.10;6.50;;;;;;;19.40;90.66;97601.09;5071061;28;20322;-78
2023/06/30 04:31:28;;;;;;;7.00;6.33;;;;;;;19.54;90.25;97602.19;5071001;28;20349;-78
2023/06/30 04:33:55;;;;;;;7.10;6.40;;;;;;;19.61;89.27;97604.00;5070943;28;20207;-77
2023/06/30 04:36:21;;;;;;;7.27;6.67;;;;;;;19.74;88.44;97588.19;5071482;28;20319;-78
2023/06/30 04:38:48;;;;;;;6.57;5.97;;;;;;;19.84;87.85;97599.53;5070975;28;20681;-78
2023/06/30 04:41:16;;;;;;;7.33;6.47;;;;;;;19.91;87.50;97605.00;5070648;28;20238;-78
2023/06/30 04:43:43;;;;;;;6.60;5.80;;;;;;;19.95;87.42;97603.66;5071305;28;20210;-77
2023/06/30 04:46:09;;;;;;;6.47;5.97;;;;;;;20.01;87.54;97605.63;5070980;28;20207;-78
2023/06/30 04:48:36;;;;;;;7.47;6.60;;;;;;;20.00;86.89;97607.47;5071034;28;20234;-78
2023/06/30 04:51:03;;;;;;;6.80;6.20;;;;;;;19.99;86.10;97603.13;5070856;28;20226;-78
2023/06/30 04:53:29;;;;;;;7.17;6.47;;;;;;;20.00;85.69;97601.28;5071328;28;20211;-78
2023/06/30 04:55:56;;;;;;;7.10;6.10;;;;;;;20.05;85.54;97606.97;5070998;28;20207;-78
2023/06/30 04:58:24;;;;;;;6.93;6.23;;;;;;;20.08;85.06;97596.75;5071097;28;20203;-78
2023/06/30 05:00:50;;;;;;;7.00;6.40;;;;;;;20.13;85.47;97599.72;5070491;28;20326;-77
2023/06/30 05:03:17;;;;;;;6.60;6.10;;;;;;;20.16;85.82;97604.72;5071261;28;20301;-79
2023/06/30 05:05:43;;;;;;;7.13;6.10;;;;;;;20.17;86.04;97600.22;5071030;28;20215;-78
2023/06/30 05:08:09;;;;;;;6.93;6.30;;;;;;;20.18;86.08;97607.25;5070763;28;20234;-77
2023/06/30 05:10:36;;;;;;;6.53;6.00;;;;;;;20.21;85.93;97602.34;5070716;28;20227;-79
2023/06/30 05:13:03;;;;;;;6.73;6.13;;;;;;;20.24;86.09;97601.97;5072762;28;20211;-79
2023/06/30 05:15:31;;;;;;;6.97;6.27;;;;;;;20.31;85.17;97610.97;5090903;28;20599;-78
2023/06/30 05:17:57;;;;;;;6.50;5.90;;;;;;;20.36;84.95;97611.28;5090992;28;20202;-79
2023/06/30 05:20:24;;;;;;;7.57;6.87;;;;;;;20.39;85.20;97613.63;5090757;28;20249;-79
2023/06/30 05:22:50;;;;;;;8.37;6.10;;;;;;;20.38;85.99;97609.28;5090955;28;20214;-79
2023/06/30 05:25:17;;;;;;;7.27;6.50;;;;;;;20.47;84.94;97608.19;5090264;28;20206;-80
2023/06/30 05:27:43;;;;;;;7.33;6.47;;;;;;;20.50;84.21;97613.22;5089109;28;20226;-80
2023/06/30 05:30:11;;;;;;;6.83;6.23;;;;;;;20.39;85.48;97621.69;5087227;28;20719;-80
2023/06/30 05:32:39;;;;;;;7.70;6.90;;;;;;;20.26;90.24;97623.28;5087925;28;20215;-80
2023/06/30 05:35:06;;;;;;;7.27;6.67;;;;;;;20.11;93.71;97623.19;5089785;28;20621;-79
2023/06/30 05:37:32;;;;;;;7.93;7.23;;;;;;;20.02;97.15;97632.28;5094198;28;20203;-80
2023/06/30 05:39:59;;;;;;;8.43;7.57;;;;;;;19.91;100.00;97631.84;5093827;28;20565;-80
2023/06/30 05:42:25;;;;;;;10.00;7.70;;;;;;;19.73;100.00;97624.06;5091393;28;20214;-80
2023/06/30 05:44:52;;;;;;;10.97;8.57;;;;;;;19.54;100.00;97634.34;5091549;28;20211;-79
2023/06/30 05:47:19;;;;;;;8.90;8.00;;;;;;;19.40;100.00;97641.28;5091175;28;20225;-79
2023/06/30 05:49:47;;;;;;;11.30;8.67;;;;;;;19.23;100.00;97642.34;5092416;28;20207;-79
2023/06/30 05:52:13;;;;;;;9.07;8.20;;;;;;;19.15;100.00;97639.63;5094080;28;20215;-79
2023/06/30 05:54:41;;;;;;;9.23;8.33;;;;;;;19.08;100.00;97644.00;5092581;28;20211;-78
2023/06/30 05:57:08;;;;;;;9.37;8.47;;;;;;;19.00;100.00;97652.06;5091208;28;20737;-78
2023/06/30 05:59:34;;;;;;;9.70;8.80;;;;;;;18.98;100.00;97655.91;5091036;28;20210;-77
2023/06/30 06:02:01;;;;;;;8.70;7.90;;;;;;;19.00;100.00;97653.91;5090857;28;20238;-77
2023/06/30 06:04:27;;;;;;;10.80;8.93;;;;;;;19.03;100.00;97654.38;5093509;28;20207;-79
2023/06/30 06:06:55;;;;;;;11.87;9.30;;;;;;;19.03;100.00;97659.75;5093709;28;20213;-80
2023/06/30 06:09:23;;;;;;;9.77;8.95;;;;;;;19.07;100.00;97669.13;5073694;28;20523;-79
2023/06/30 06:11:49;;;;;;;9.60;8.80;;;;;;;18.97;100.00;97664.97;5068823;28;20239;-78
2023/06/30 06:14:17;;;;;;;10.00;9.00;;;;;;;18.91;100.00;97658.41;5069401;28;20207;-79
2023/06/30 06:16:45;;;;;;;10.53;9.50;;;;;;;18.87;100.00;97666.97;5071310;28;20563;-78
2023/06/30 06:19:11;;;;;;;9.77;8.83;;;;;;;18.85;100.00;97664.47;5073029;28;20700;-82
2023/06/30 06:21:38;;;;;;;10.20;9.23;;;;;;;18.92;100.00;97659.25;5071852;28;20231;-80
2023/06/30 06:24:07;;;;;;;10.60;9.60;;;;;;;18.90;100.00;97662.09;5070077;28;20203;-80
2023/06/30 06:26:35;;;;;;;11.33;10.23;;;;;;;18.88;100.00;97664.13;5070744;28;20208;-80
2023/06/30 06:29:02;;;;;;;11.18;10.10;;;;;;;18.88;100.00;97664.13;5070136;28;20480;-83
2023/06/30 06:31:28;;;;;;;12.37;11.03;;;;;;;18.94;100.00;97679.53;5072764;28;20577;-80
2023/06/30 06:33:55;;;;;;;11.73;10.53;;;;;;;18.93;100.00;97677.84;5073090;28;20211;-79
2023/06/30 06:36:21;;;;;;;10.70;9.80;;;;;;;18.98;100.00;97675.50;5070147;28;20215;-79
2023/06/30 06:38:48;;;;;;;10.87;9.83;;;;;;;19.00;100.00;97667.28;5069628;28;20270;-79
2023/06/30 06:41:16;;;;;;;10.80;9.70;;;;;;;19.04;100.00;97669.47;5069682;28;20231;-80
2023/06/30 06:43:42;;;;;;;11.90;10.67;;;;;;;19.09;100.00;97672.47;5071418;28;20207;-79
2023/06/30 06:46:09;;;;;;;12.40;11.10;;;;;;;19.16;100.00;97673.47;5071598;28;20349;-79
2023/06/30 06:48:37;;;;;;;12.93;10.63;;;;;;;19.16;100.00;97670.81;5070886;28;20241;-79
2023/06/30 06:51:04;;;;;;;11.67;10.47;;;;;;;19.22;100.00;97678.19;5070038;28;20231;-80
2023/06/30 06:53:33;;;;;;;13.70;12.30;;;;;;;19.26;100.00;97674.13;5069945;28;20277;-79
2023/06/30 06:56:00;;;;;;;12.33;11.03;;;;;;;19.36;100.00;97671.28;5069853;28;20273;-79
2023/06/30 06:58:30;;;;;;;13.27;11.27;;;;;;;19.48;100.00;97668.06;5072436;28;20214;-79
2023/06/30 07:00:56;;;;;;;12.73;11.43;;;;;;;19.61;100.00;97663.00;5071660;28;20240;-80
2023/06/30 07:03:23;;;;;;;13.20;11.83;;;;;;;19.65;100.00;97674.19;5069451;28;20302;-80
2023/06/30 07:05:50;;;;;;;12.17;10.80;;;;;;;19.70;100.00;97672.66;5068976;28;20618;-80
2023/06/30 07:08:18;;;;;;;12.40;11.10;;;;;;;19.73;100.00;97664.28;5069459;28;20585;-79
2023/06/30 07:10:45;;;;;;;15.43;13.23;;;;;;;19.70;100.00;97664.63;5070802;28;20238;-80
2023/06/30 07:13:13;;;;;;;14.03;12.70;;;;;;;19.62;100.00;97670.03;5072539;28;20612;-80
2023/06/30 07:15:41;;;;;;;15.00;13.40;;;;;;;19.60;100.00;97660.47;5070303;28;20701;-79
2023/06/30 07:18:07;;;;;;;14.23;12.87;;;;;;;19.62;100.00;97664.66;5069335;28;20261;-79
2023/06/30 07:20:33;;;;;;;13.73;12.37;;;;;;;19.68;100.00;97676.56;5068867;28;20230;-79
2023/06/30 07:23:00;;;;;;;16.90;14.80;;;;;;;19.69;100.00;97676.34;5069744;28;20212;-80
2023/06/30 07:25:27;;;;;;;14.43;12.87;;;;;;;19.63;100.00;97682.41;5071879;28;20230;-79
2023/06/30 07:27:56;;;;;;;15.13;13.63;;;;;;;19.67;100.00;97683.75;5071677;28;20576;-78
2023/06/30 07:30:25;;;;;;;16.07;14.37;;;;;;;19.70;100.00;97683.38;5068723;28;20234;-78
2023/06/30 07:32:54;;;;;;;16.33;14.53;;;;;;;19.75;100.00;97686.38;5068877;28;20207;-78
2023/06/30 07:35:21;;;;;;;16.93;15.00;;;;;;;19.76;100.00;97693.41;5068886;28;20211;-79
2023/06/30 07:37:48;;;;;;;16.30;14.70;;;;;;;19.81;100.00;97695.59;5071182;28;20204;-79
2023/06/30 07:40:15;;;;;;;17.20;13.90;;;;;;;19.85;100.00;97691.53;5071342;28;20238;-79
2023/06/30 07:42:42;;;;;;;16.90;15.03;;;;;;;19.82;100.00;97698.09;5071829;28;20215;-80
2023/06/30 07:45:10;;;;;;;17.10;15.50;;;;;;;19.80;100.00;97705.47;5072055;28;20207;-78
2023/06/30 07:47:39;;;;;;;16.37;14.67;;;;;;;19.84;100.00;97712.19;5071270;28;20207;-78
2023/06/30 07:50:11;;;;;;;19.80;14.83;;;;;;;19.88;100.00;97721.53;5070785;28;20731;-79
2023/06/30 07:52:40;;;;;;;19.13;16.53;;;;;;;19.90;100.00;97724.06;5071392;28;20211;-79
2023/06/30 07:55:07;;;;;;;18.83;15.80;;;;;;;19.88;100.00;97724.22;5071486;28;20212;-79
2023/06/30 07:57:34;;;;;;;17.13;14.73;;;;;;;19.89;100.00;97731.28;5071018;28;20211;-79
2023/06/30 08:00:00;;;;;;;14.43;12.93;;;;;;;19.87;100.00;97733.28;5069876;28;20207;-78
2023/06/30 08:02:27;;;;;;;14.83;12.33;;;;;;;19.86;100.00;97734.28;5069530;28;20696;-79
2023/06/30 08:04:53;;;;;;;15.20;13.07;;;;;;;19.76;100.00;97733.66;5070856;28;20215;-76
2023/06/30 08:07:21;;;;;;;17.97;13.00;;;;;;;19.60;100.00;97736.38;5070247;28;20215;-79
2023/06/30 08:09:48;;;;;;;19.67;13.40;;;;;;;19.42;100.00;97738.44;5069951;28;20777;-79
2023/06/30 08:12:16;;;;;;;15.80;13.03;;;;;;;19.33;100.00;97739.44;5070143;28;20590;-80
2023/06/30 08:14:42;;;;;;;19.57;13.27;;;;;;;19.27;100.00;97742.78;5070174;28;20212;-78
2023/06/30 08:17:09;;;;;;;20.33;14.40;;;;;;;19.15;100.00;97741.44;5070469;28;20666;-78
2023/06/30 08:19:41;;;;;;;19.03;14.87;;;;;;;19.14;100.00;97745.13;5070247;28;20294;-78
2023/06/30 08:22:07;;;;;;;20.87;15.00;;;;;;;19.09;100.00;97747.47;5069309;28;20223;-78
2023/06/30 08:24:35;;;;;;;21.20;15.53;;;;;;;19.04;100.00;97744.47;5070117;28;20211;-78
2023/06/30 08:27:02;;;;;;;20.83;15.40;;;;;;;18.99;100.00;97749.50;5071059;28;20207;-78
2023/06/30 08:29:29;;;;;;;24.87;15.77;;;;;;;18.97;100.00;97747.97;5071258;28;20257;-78
2023/06/30 08:31:55;;;;;;;20.17;15.37;;;;;;;18.98;100.00;97747.81;5071117;28;20231;-79
2023/06/30 08:34:25;;;;;;;17.93;13.93;;;;;;;18.98;100.00;97749.66;5070240;28;20215;-79
2023/06/30 08:36:52;;;;;;;21.67;15.10;;;;;;;18.96;100.00;97752.50;5070427;28;20239;-79
2023/06/30 08:39:18;;;;;;;18.87;14.43;;;;;;;18.98;100.00;97749.66;5069400;28;20207;-79
2023/06/30 08:41:49;;;;;;;21.30;15.50;;;;;;;18.99;100.00;97757.53;5067727;28;20230;-80
2023/06/30 08:44:16;;;;;;;21.07;15.60;;;;;;;19.02;100.00;97748.31;5067938;28;20603;-79
2023/06/30 08:46:42;;;;;;;21.97;15.57;;;;;;;18.99;100.00;97752.16;5067567;28;20212;-79
2023/06/30 08:49:10;;;;;;;21.00;15.97;;;;;;;18.97;100.00;97751.47;5068646;28;20239;-79
2023/06/30 08:51:37;;;;;;;22.97;16.00;;;;;;;18.98;100.00;97747.81;5070293;28;20610;-78
2023/06/30 08:54:05;;;;;;;18.90;15.03;;;;;;;19.01;100.00;97744.78;5070711;28;20211;-79
2023/06/30 08:56:36;;;;;;;20.63;15.00;;;;;;;19.01;100.00;97741.31;5070636;28;20305;-79
2023/06/30 08:59:05;;;;;;;22.07;16.67;;;;;;;19.00;100.00;97737.78;5070390;28;20203;-79
2023/06/30 09:01:31;;;;;;;19.73;15.87;;;;;;;19.06;100.00;97753.16;5070005;28;20235;-79
2023/06/30 09:04:00;;;;;;;22.00;16.27;;;;;;;19.09;100.00;97742.09;5070397;28;20712;-79
2023/06/30 09:06:27;;;;;;;21.57;15.97;;;;;;;19.14;100.00;97731.72;5070533;28;20215;-79
2023/06/30 09:09:06;;;;;;;22.93;16.67;;;;;;;19.18;100.00;97730.41;5070251;28;20724;-79
2023/06/30 09:11:34;;;;;;;21.90;16.57;;;;;;;19.28;100.00;97730.25;5074194;28;20246;-79
2023/06/30 09:14:03;;;;;;;20.83;16.37;;;;;;;19.24;100.00;97729.75;5074162;28;20669;-79
2023/06/30 09:16:32;;;;;;;21.83;17.00;;;;;;;19.26;100.00;97733.09;5074469;28;20257;-80
2023/06/30 09:18:59;;;;;;;22.73;17.13;;;;;;;19.30;100.00;97734.44;5074308;28;20210;-80
2023/06/30 09:21:26;;;;;;;22.57;16.03;;;;;;;19.33;100.00;97731.41;5074245;28;20231;-81
2023/06/30 09:23:52;;;;;;;19.27;15.20;;;;;;;19.25;100.00;97728.75;5074217;28;20698;-87
2023/06/30 09:26:19;;;;;;;21.43;16.73;;;;;;;19.21;100.00;97724.72;5074468;28;20214;-78
2023/06/30 09:28:46;;;;;;;22.30;16.07;;;;;;;19.28;100.00;97720.38;5074158;28;20235;-82
2023/06/30 09:31:13;;;;;;;20.77;16.40;;;;;;;19.38;100.00;97709.47;5074077;28;20729;-81
2023/06/30 09:33:42;;;;;;;20.40;17.00;;;;;;;19.44;100.00;97720.34;5074195;28;20610;-82
2023/06/30 09:36:08;;;;;;;22.03;16.37;;;;;;;19.44;100.00;97714.97;5074326;28;20218;-81
2023/06/30 09:38:36;;;;;;;19.87;15.57;;;;;;;19.48;100.00;97721.69;5074232;28;20302;-81
2023/06/30 09:41:05;;;;;;;18.03;14.70;;;;;;;19.53;100.00;97715.78;5073992;28;20227;-82
2023/06/30 09:43:32;;;;;;;18.87;15.10;;;;;;;19.44;100.00;97725.69;5073919;28;20211;-81
2023/06/30 09:46:00;;;;;;;18.43;14.67;;;;;;;19.40;100.00;97724.38;5073833;28;20215;-81
2023/06/30 09:48:30;;;;;;;18.57;15.13;;;;;;;19.43;100.00;97726.72;5073539;28;20211;-81
2023/06/30 09:50:58;;;;;;;18.57;15.13;;;;;;;19.48;100.00;97721.69;5073288;28;20258;-76
2023/06/30 09:53:25;;;;;;;21.97;15.90;;;;;;;19.49;100.00;97717.13;5073995;28;20596;-78
2023/06/30 09:55:53;;;;;;;19.70;14.90;;;;;;;19.51;100.00;97724.00;5074027;28;20218;-79
2023/06/30 09:58:20;;;;;;;19.03;14.73;;;;;;;19.55;100.00;97721.81;5073948;28;20203;-79
2023/06/30 10:00:50;;;;;;;19.43;15.33;;;;;;;19.60;100.00;97709.59;5073347;28;20242;-80
2023/06/30 10:03:18;;;;;;;19.50;15.27;;;;;;;19.63;100.00;97714.59;5073916;28;20340;-80
2023/06/30 10:05:45;;;;;;;20.77;15.70;;;;;;;19.58;100.00;97721.47;5073724;28;20211;-80
2023/06/30 10:08:14;;;;;;;20.30;15.97;;;;;;;19.48;100.00;97719.00;5073488;28;20218;-76
2023/06/30 10:10:42;;;;;;;18.57;15.53;;;;;;;19.44;100.00;97714.97;5073118;28;20242;-79
2023/06/30 10:13:09;;;;;;;18.97;15.53;;;;;;;19.50;100.00;97718.84;5073299;28;20211;-80
2023/06/30 10:15:36;;;;;;;21.50;17.50;;;;;;;19.63;100.00;97719.94;5073158;28;20575;-77
2023/06/30 10:18:05;;;;;;;19.57;16.90;;;;;;;19.70;100.00;97715.56;5073506;28;20318;-77
2023/06/30 10:20:32;;;;;;;21.43;17.13;;;;;;;19.80;100.00;97715.38;5072497;28;20748;-75
2023/06/30 10:23:00;;;;;;;21.30;16.83;;;;;;;19.85;100.00;97724.56;5073076;28;20700;-75
2023/06/30 10:25:30;;;;;;;21.30;16.90;;;;;;;19.84;100.00;97711.34;5072960;28;20209;-75
2023/06/30 10:27:58;;;;;;;22.03;17.40;;;;;;;19.92;100.00;97713.97;5072939;28;20674;-76
2023/06/30 10:30:24;;;;;;;24.37;18.80;;;;;;;19.90;100.00;97714.16;5073168;28;20246;-76
2023/06/30 10:32:51;;;;;;;23.10;18.80;;;;;;;19.97;100.00;97711.59;5072974;28;20237;-75
2023/06/30 10:35:19;;;;;;;23.47;19.43;;;;;;;20.01;100.00;97719.16;5072766;28;20218;-73
2023/06/30 10:37:46;;;;;;;24.23;20.43;;;;;;;19.93;100.00;97716.50;5072861;28;20203;-76
2023/06/30 10:40:25;;;;;;;25.33;20.70;;;;;;;19.90;100.00;97722.22;5072202;28;20223;-76
2023/06/30 10:42:55;;;;;;;24.00;19.57;;;;;;;19.89;100.00;97720.56;5072436;28;20762;-73
2023/06/30 10:45:21;;;;;;;27.23;21.30;;;;;;;20.03;100.00;97718.97;5072398;28;20592;-75
2023/06/30 10:47:51;;;;;;;25.27;20.60;;;;;;;20.13;100.00;97717.78;5072614;28;20519;-75
2023/06/30 10:50:18;;;;;;;23.50;19.63;;;;;;;20.25;100.00;97716.34;5072074;28;20235;-75
2023/06/30 10:52:51;;;;;;;28.67;22.17;;;;;;;20.40;100.00;97711.94;5072425;28;20285;-73
2023/06/30 10:55:22;;;;;;;29.07;23.33;;;;;;;20.52;100.00;97712.34;5072088;28;20219;-76
2023/06/30 10:57:54;;;;;;;29.27;24.13;;;;;;;20.40;100.00;97716.44;5072605;28;20211;-74
2023/06/30 11:00:24;;;;;;;35.30;27.17;;;;;;;20.39;100.00;97718.31;5071804;28;20241;-74
2023/06/30 11:02:56;;;;;;;38.03;26.60;;;;;;;20.34;100.00;97726.06;5072317;28;20242;-74
2023/06/30 11:05:24;;;;;;;30.30;24.23;;;;;;;20.23;100.00;97728.31;5072298;28;20666;-74
2023/06/30 11:07:53;;;;;;;33.60;25.67;;;;;;;20.23;100.00;97734.50;5071682;28;20258;-74
2023/06/30 11:10:28;;;;;;;34.10;26.13;;;;;;;20.22;100.00;97740.88;5070951;28;20331;-74
2023/06/30 11:12:57;;;;;;;32.47;26.23;;;;;;;20.21;100.00;97749.09;5069392;28;20211;-74
2023/06/30 11:15:28;;;;;;;35.30;26.57;;;;;;;20.15;100.00;97747.97;5069231;28;20218;-74
2023/06/30 11:18:00;;;;;;;39.40;29.40;;;;;;;20.09;100.00;97731.72;5069098;28;20199;-73
2023/06/30 11:20:27;;;;;;;33.87;27.27;;;;;;;20.07;100.00;97718.50;5071819;28;20276;-74
2023/06/30 11:23:00;;;;;;;36.60;27.73;;;;;;;20.13;100.00;97715.13;5082114;28;20216;-74